Time;durP1;ratioP1;P1;durP2;ratioP2;P2;SDS_P1;SDS_P2;PMS_P1;PMS_P2;Temp;Humidity;BMP_temperature;BMP_pressure;BME280_temperature;BME280_humidity;BME280_pressure;Samples;Min_cycle;Max_cycle;Signal;HPM_P1;HPM_P2
2024/03/22 00:02:15;;;;;;;14.18;7.82;;;;;;;7.56;73.94;99856.34;5091293;28;20409;-38
2024/03/22 00:04:40;;;;;;;15.18;8.85;;;;;;;6.79;77.81;99854.66;5090847;28;20453;-38
2024/03/22 00:07:06;;;;;;;15.85;8.88;;;;;;;7.05;77.69;99851.66;5090892;28;20111;-40
2024/03/22 00:09:31;;;;;;;15.85;8.68;;;;;;;7.33;76.45;99860.84;5091240;28;20416;-39
2024/03/22 00:11:57;;;;;;;16.50;9.85;;;;;;;7.14;76.85;99862.19;5090821;28;20490;-40
2024/03/22 00:14:22;;;;;;;15.93;9.30;;;;;;;7.27;77.00;99865.03;5090846;28;20070;-40
2024/03/22 00:16:48;;;;;;;16.75;9.75;;;;;;;7.29;76.35;99863.06;5090888;28;20024;-39
2024/03/22 00:19:13;;;;;;;15.75;9.40;;;;;;;7.17;76.92;99864.47;5091121;28;20028;-40
2024/03/22 00:21:39;;;;;;;14.88;9.32;;;;;;;7.07;77.09;99866.56;5090723;28;20508;-39
2024/03/22 00:24:04;;;;;;;14.77;8.73;;;;;;;7.15;77.13;99854.06;5090840;28;20020;-38
2024/03/22 00:26:29;;;;;;;13.73;8.95;;;;;;;7.08;77.17;99855.78;5090625;28;20513;-39
2024/03/22 00:28:57;;;;;;;14.15;8.98;;;;;;;6.92;78.39;99856.72;5090605;28;20035;-39
2024/03/22 00:31:23;;;;;;;13.80;9.25;;;;;;;7.00;77.95;99856.66;5090861;28;20024;-40
2024/03/22 00:33:48;;;;;;;12.60;8.30;;;;;;;6.80;78.63;99855.50;5090703;28;20483;-37
2024/03/22 00:36:13;;;;;;;15.25;9.25;;;;;;;6.54;80.05;99855.84;5090488;28;20095;-38
2024/03/22 00:38:39;;;;;;;16.33;8.65;;;;;;;6.51;80.62;99857.03;5090170;28;20048;-40
2024/03/22 00:41:04;;;;;;;14.52;9.18;;;;;;;6.35;80.37;99857.91;5090451;28;20030;-39
2024/03/22 00:43:29;;;;;;;14.13;8.32;;;;;;;6.66;79.21;99867.66;5090380;28;20026;-39
2024/03/22 00:45:55;;;;;;;13.95;8.30;;;;;;;6.41;79.07;99867.78;5090201;28;20032;-39
2024/03/22 00:48:20;;;;;;;14.30;8.73;;;;;;;6.75;77.74;99865.78;5090001;28;20035;-40
2024/03/22 00:50:46;;;;;;;14.07;8.50;;;;;;;6.92;77.53;99871.78;5090234;28;20028;-40
2024/03/22 00:53:11;;;;;;;14.48;8.30;;;;;;;7.00;76.46;99864.59;5090197;28;20538;-40
2024/03/22 00:55:37;;;;;;;13.63;8.75;;;;;;;6.50;78.18;99859.84;5090479;28;20027;-38
2024/03/22 00:58:02;;;;;;;12.73;8.57;;;;;;;6.69;78.38;99861.22;5090361;28;20217;-40
2024/03/22 01:00:28;;;;;;;13.82;8.30;;;;;;;6.62;78.32;99853.94;5090367;28;20505;-39
2024/03/22 01:02:53;;;;;;;16.38;9.00;;;;;;;6.70;78.39;99861.03;5090242;28;20607;-40
2024/03/22 01:05:18;;;;;;;14.15;9.00;;;;;;;6.84;77.65;99856.81;5090174;28;20025;-37
2024/03/22 01:07:44;;;;;;;14.75;8.82;;;;;;;6.59;79.01;99867.53;5090385;28;20455;-38
2024/03/22 01:10:10;;;;;;;14.68;9.48;;;;;;;6.22;81.29;99873.50;5090103;28;20024;-40
2024/03/22 01:12:36;;;;;;;14.38;8.70;;;;;;;6.65;79.91;99866.84;5090224;28;20070;-39
2024/03/22 01:15:01;;;;;;;15.63;9.27;;;;;;;6.79;78.87;99865.25;5090143;28;20042;-39
2024/03/22 01:17:27;;;;;;;16.02;9.60;;;;;;;6.96;78.47;99867.78;5090289;28;20120;-39
2024/03/22 01:19:52;;;;;;;16.15;9.25;;;;;;;7.01;77.55;99870.75;5090493;28;20668;-40
2024/03/22 01:22:18;;;;;;;14.93;9.25;;;;;;;6.98;77.73;99879.00;5089779;28;20491;-38
2024/03/22 01:24:43;;;;;;;16.02;9.30;;;;;;;7.22;77.74;99873.53;5089744;28;20472;-40
2024/03/22 01:27:09;;;;;;;15.13;9.85;;;;;;;7.30;78.18;99866.53;5089992;28;20024;-40
2024/03/22 01:29:35;;;;;;;15.55;9.73;;;;;;;7.26;77.95;99868.72;5089605;28;20112;-39
2024/03/22 01:32:00;;;;;;;19.02;11.15;;;;;;;7.04;78.95;99871.22;5090257;28;20050;-38
2024/03/22 01:34:26;;;;;;;21.63;12.43;;;;;;;7.13;78.74;99877.25;5090496;28;20527;-40
2024/03/22 01:36:52;;;;;;;17.85;10.68;;;;;;;7.22;76.66;99870.06;5090013;28;20028;-39
2024/03/22 01:39:21;;;;;;;18.65;10.23;;;;;;;6.92;78.24;99875.25;5089896;28;20078;-40
2024/03/22 01:41:47;;;;;;;18.45;10.40;;;;;;;7.07;77.77;99877.16;5089735;28;20024;-40
2024/03/22 01:44:13;;;;;;;18.35;10.85;;;;;;;7.04;77.86;99870.38;5089610;28;20115;-39
2024/03/22 01:46:39;;;;;;;17.92;10.57;;;;;;;6.95;78.10;99863.47;5089837;28;20414;-39
2024/03/22 01:49:05;;;;;;;17.02;10.65;;;;;;;6.82;78.89;99869.38;5089632;28;20512;-38
2024/03/22 01:51:30;;;;;;;21.73;11.90;;;;;;;7.01;77.90;99878.69;5089750;28;20100;-35
2024/03/22 01:53:58;;;;;;;17.38;10.60;;;;;;;7.00;77.64;99869.91;5089585;28;20038;-39
2024/03/22 01:56:23;;;;;;;18.58;10.88;;;;;;;6.99;77.17;99876.19;5089788;28;20480;-39
2024/03/22 01:58:49;;;;;;;17.27;10.93;;;;;;;6.96;77.74;99867.78;5089820;28;20031;-40
2024/03/22 02:01:14;;;;;;;23.27;11.13;;;;;;;7.14;76.61;99875.41;5093194;28;20488;-40
2024/03/22 02:03:40;;;;;;;19.85;11.52;;;;;;;7.32;76.08;99873.28;5093005;28;20365;-39
2024/03/22 02:06:05;;;;;;;17.55;11.00;;;;;;;7.14;76.80;99870.97;5093156;28;20020;-40
2024/03/22 02:08:30;;;;;;;17.33;10.65;;;;;;;6.98;77.19;99863.94;5093151;28;20464;-40
2024/03/22 02:10:56;;;;;;;18.90;10.40;;;;;;;6.96;77.61;99870.44;5092748;28;20031;-40
2024/03/22 02:13:21;;;;;;;18.80;11.52;;;;;;;6.80;77.97;99850.22;5094022;28;20081;-40
2024/03/22 02:15:47;;;;;;;17.80;10.70;;;;;;;7.07;76.76;99867.38;5094080;28;20024;-41
2024/03/22 02:18:12;;;;;;;23.60;11.27;;;;;;;6.73;78.79;99865.16;5093871;28;20023;-40
2024/03/22 02:20:37;;;;;;;19.23;10.65;;;;;;;7.05;77.49;99866.72;5093613;28;20097;-40
2024/03/22 02:23:03;;;;;;;17.80;11.25;;;;;;;7.04;77.67;99873.00;5093610;28;20131;-38
2024/03/22 02:25:28;;;;;;;16.48;10.93;;;;;;;7.00;77.01;99877.00;5093942;28;20042;-39
2024/03/22 02:27:53;;;;;;;18.77;11.50;;;;;;;6.92;77.62;99871.78;5093557;28;20020;-38
2024/03/22 02:30:19;;;;;;;18.77;11.52;;;;;;;7.01;76.85;99874.19;5093757;28;20025;-39
2024/03/22 02:32:44;;;;;;;21.63;12.02;;;;;;;6.97;77.58;99885.31;5093777;28;20024;-38
2024/03/22 02:35:09;;;;;;;19.00;10.98;;;;;;;6.78;77.87;99878.69;5093705;28;20017;-38
2024/03/22 02:37:35;;;;;;;18.40;11.70;;;;;;;6.67;78.92;99890.47;5093434;28;20113;-39
2024/03/22 02:40:00;;;;;;;20.17;12.10;;;;;;;6.80;78.70;99890.72;5093627;28;20384;-39
2024/03/22 02:42:26;;;;;;;22.60;12.80;;;;;;;6.76;78.24;99894.72;5093386;28;20415;-38
2024/03/22 02:44:51;;;;;;;18.65;11.95;;;;;;;6.84;78.15;99894.66;5093441;28;20024;-39
2024/03/22 02:47:17;;;;;;;20.50;12.77;;;;;;;6.90;77.98;99884.38;5092335;28;20384;-38
2024/03/22 02:49:42;;;;;;;21.42;13.00;;;;;;;7.09;77.22;99885.72;5093138;28;20033;-37
2024/03/22 02:52:07;;;;;;;23.40;13.50;;;;;;;6.99;77.37;99888.63;5073016;28;20503;-38
2024/03/22 02:54:33;;;;;;;20.70;12.02;;;;;;;6.84;77.57;99893.84;5074370;28;20021;-38
2024/03/22 02:56:58;;;;;;;20.80;13.35;;;;;;;6.87;77.69;99890.81;5092852;28;20024;-40
2024/03/22 02:59:27;;;;;;;20.35;12.35;;;;;;;6.77;78.47;99893.69;5092860;28;20449;-38
2024/03/22 03:01:52;;;;;;;21.08;12.38;;;;;;;6.98;77.53;99898.34;5093026;28;20050;-38
2024/03/22 03:04:18;;;;;;;19.92;12.63;;;;;;;6.85;77.98;99903.41;5093035;28;20085;-40
2024/03/22 03:06:45;;;;;;;20.85;13.10;;;;;;;6.97;77.90;99902.00;5092645;28;20247;-39
2024/03/22 03:09:11;;;;;;;19.05;11.98;;;;;;;6.77;77.55;99904.28;5092016;28;20465;-39
2024/03/22 03:11:38;;;;;;;19.17;11.30;;;;;;;7.16;76.09;99906.00;5091817;28;20059;-40
2024/03/22 03:14:03;;;;;;;18.73;11.70;;;;;;;7.27;75.33;99903.94;5092195;28;20491;-40
2024/03/22 03:16:28;;;;;;;20.48;11.95;;;;;;;7.24;75.88;99911.25;5092737;28;20024;-40
2024/03/22 03:18:54;;;;;;;19.92;11.52;;;;;;;7.14;76.22;99908.03;5092512;28;20040;-40
2024/03/22 03:21:19;;;;;;;19.48;12.00;;;;;;;7.36;75.85;99916.09;5092476;28;20039;-39
2024/03/22 03:23:44;;;;;;;18.38;11.38;;;;;;;7.24;75.96;99913.88;5088090;28;20050;-40
2024/03/22 03:26:10;;;;;;;19.63;11.02;;;;;;;7.21;76.00;99914.22;5072339;28;20029;-39
2024/03/22 03:28:35;;;;;;;21.85;12.32;;;;;;;7.05;76.92;99917.00;5072176;28;20028;-40
2024/03/22 03:31:00;;;;;;;17.63;11.35;;;;;;;7.18;76.07;99913.78;5072018;28;20025;-39
2024/03/22 03:33:26;;;;;;;20.15;11.50;;;;;;;7.03;76.38;99914.53;5088485;28;20067;-40
2024/03/22 03:35:51;;;;;;;19.88;11.48;;;;;;;7.07;76.45;99915.00;5092097;28;20077;-40
2024/03/22 03:38:16;;;;;;;17.67;11.15;;;;;;;7.12;75.39;99923.25;5091784;28;20508;-39
2024/03/22 03:40:42;;;;;;;22.88;13.02;;;;;;;7.14;75.92;99928.34;5092353;28;20415;-38
2024/03/22 03:43:07;;;;;;;21.70;12.20;;;;;;;7.02;75.83;99936.69;5091782;28;20031;-39
2024/03/22 03:45:36;;;;;;;23.83;12.30;;;;;;;6.82;77.14;99940.81;5091730;28;20651;-40
2024/03/22 03:48:02;;;;;;;18.70;11.57;;;;;;;6.89;76.33;99940.91;5091969;28;20039;-40
2024/03/22 03:50:27;;;;;;;21.00;11.57;;;;;;;6.90;76.39;99937.28;5091764;28;20262;-39
2024/03/22 03:52:52;;;;;;;24.80;11.95;;;;;;;6.71;77.46;99941.19;5091537;28;20032;-40
2024/03/22 03:55:18;;;;;;;21.50;12.38;;;;;;;6.58;78.10;99942.56;5091641;28;20095;-37
2024/03/22 03:57:43;;;;;;;19.90;11.95;;;;;;;6.76;76.93;99944.13;5090902;28;20070;-39
2024/03/22 04:00:09;;;;;;;21.70;12.70;;;;;;;6.67;77.53;99945.19;5091522;28;20380;-39
2024/03/22 04:02:34;;;;;;;26.30;15.23;;;;;;;6.68;76.96;99945.00;5096153;28;20032;-40
2024/03/22 04:04:59;;;;;;;28.80;14.60;;;;;;;6.47;78.33;99945.59;5091418;28;20655;-40
2024/03/22 04:07:25;;;;;;;26.38;15.32;;;;;;;6.70;77.55;99947.47;5102632;28;20398;-40
2024/03/22 04:09:50;;;;;;;31.45;14.98;;;;;;;6.85;76.13;99951.88;5094119;28;20460;-40
2024/03/22 04:12:16;;;;;;;29.08;14.75;;;;;;;6.88;76.66;99955.97;5090596;28;20081;-40
2024/03/22 04:14:41;;;;;;;27.40;14.45;;;;;;;6.94;75.29;99951.81;5091326;28;20024;-39
2024/03/22 04:17:06;;;;;;;26.90;14.32;;;;;;;7.03;75.15;99959.53;5091367;28;20023;-38
2024/03/22 04:19:32;;;;;;;26.33;14.70;;;;;;;6.42;76.87;99963.81;5091384;28;20024;-39
2024/03/22 04:21:57;;;;;;;24.38;14.55;;;;;;;6.51;77.62;99969.88;5090456;28;20410;-40
2024/03/22 04:24:23;;;;;;;49.42;23.63;;;;;;;6.28;77.75;99964.50;5091062;28;20031;-38
2024/03/22 04:26:48;;;;;;;30.77;16.38;;;;;;;6.06;79.65;99969.50;5090900;28;20030;-39
2024/03/22 04:29:13;;;;;;;25.85;14.40;;;;;;;6.10;79.81;99972.66;5091360;28;20088;-40
2024/03/22 04:31:39;;;;;;;28.63;15.32;;;;;;;6.15;79.04;99971.16;5091136;28;20052;-40
2024/03/22 04:34:07;;;;;;;32.17;16.33;;;;;;;6.08;80.42;99962.25;5091403;28;20038;-40
2024/03/22 04:36:32;;;;;;;29.02;16.27;;;;;;;5.86;82.96;99974.28;5091120;28;20027;-39
2024/03/22 04:38:58;;;;;;;31.75;17.52;;;;;;;6.01;81.70;99969.19;5090505;28;20048;-39
2024/03/22 04:41:23;;;;;;;28.42;16.45;;;;;;;6.10;81.04;99965.53;5078583;28;20115;-39
2024/03/22 04:43:48;;;;;;;31.52;16.90;;;;;;;6.19;80.09;99947.84;5091187;28;20111;-37
2024/03/22 04:46:14;;;;;;;28.88;15.57;;;;;;;6.11;80.41;99967.19;5090918;28;20039;-40
2024/03/22 04:48:39;;;;;;;27.00;15.02;;;;;;;6.37;78.66;99971.41;5090882;28;20173;-39
2024/03/22 04:51:04;;;;;;;28.73;14.23;;;;;;;6.40;77.80;99977.19;5082049;28;20051;-39
2024/03/22 04:53:30;;;;;;;22.45;13.57;;;;;;;6.48;77.84;99978.97;5084228;28;20457;-40
2024/03/22 04:55:55;;;;;;;22.05;13.50;;;;;;;6.85;76.63;99985.41;5090266;28;20035;-39
2024/03/22 04:58:21;;;;;;;23.05;13.35;;;;;;;7.05;74.93;99978.69;5090983;28;20026;-40
2024/03/22 05:00:48;;;;;;;23.60;13.35;;;;;;;7.32;74.09;99971.25;5090937;28;20434;-38
2024/03/22 05:03:13;;;;;;;23.67;12.55;;;;;;;7.33;73.46;99978.19;5091583;28;20071;-41
2024/03/22 05:05:40;;;;;;;21.73;12.23;;;;;;;7.15;74.01;99982.94;5090320;28;20048;-41
2024/03/22 05:08:06;;;;;;;25.45;12.85;;;;;;;7.60;73.13;99981.31;5090359;28;20437;-38
2024/03/22 05:10:32;;;;;;;23.58;12.90;;;;;;;7.31;73.14;99980.19;5089999;28;20036;-41
2024/03/22 05:12:57;;;;;;;22.45;12.82;;;;;;;7.89;70.63;99977.06;5089915;28;20496;-40
2024/03/22 05:15:25;;;;;;;24.77;12.43;;;;;;;8.26;68.60;99983.31;5090025;28;20015;-39
2024/03/22 05:17:51;;;;;;;21.42;11.60;;;;;;;8.37;67.67;99996.13;5090795;28;20032;-40
2024/03/22 05:20:16;;;;;;;20.80;11.80;;;;;;;8.97;65.99;100007.53;5090997;28;20450;-40
2024/03/22 05:22:42;;;;;;;18.15;11.25;;;;;;;9.16;63.97;100009.59;5091108;28;20028;-40
2024/03/22 05:25:08;;;;;;;18.48;11.50;;;;;;;9.27;63.24;100010.09;5090813;28;20034;-40
2024/03/22 05:27:33;;;;;;;20.77;11.75;;;;;;;9.12;64.44;100012.78;5089991;28;20028;-40
2024/03/22 05:29:59;;;;;;;22.10;12.48;;;;;;;9.00;64.81;100023.06;5090971;28;20047;-39
2024/03/22 05:32:25;;;;;;;22.15;12.00;;;;;;;9.11;64.11;100022.59;5090772;28;20119;-40
2024/03/22 05:34:50;;;;;;;21.98;12.32;;;;;;;9.64;61.87;100034.81;5093713;28;20028;-42
2024/03/22 05:37:16;;;;;;;21.83;12.07;;;;;;;9.78;61.25;100032.03;5095092;28;20531;-41
2024/03/22 05:39:42;;;;;;;36.00;12.98;;;;;;;9.70;61.79;100031.38;5094529;28;20032;-43
2024/03/22 05:42:07;;;;;;;24.67;12.25;;;;;;;9.93;61.27;100034.63;5093785;28;20095;-40
2024/03/22 05:44:33;;;;;;;21.40;12.23;;;;;;;10.27;59.39;100032.22;5093229;28;20438;-40
2024/03/22 05:46:58;;;;;;;27.23;12.30;;;;;;;10.53;58.70;100031.63;5093454;28;20137;-38
2024/03/22 05:49:23;;;;;;;25.52;12.52;;;;;;;10.08;60.30;100047.84;5092790;28;20023;-40
2024/03/22 05:51:49;;;;;;;27.98;13.25;;;;;;;10.95;58.33;100054.56;5093589;28;20651;-40
2024/03/22 05:54:14;;;;;;;24.67;12.48;;;;;;;11.68;55.76;100056.59;5094084;28;20110;-40
2024/03/22 05:56:40;;;;;;;22.40;12.65;;;;;;;12.51;53.89;100047.38;5092546;28;20035;-41
2024/03/22 05:59:05;;;;;;;19.10;11.43;;;;;;;13.28;51.68;100047.50;5094335;28;20467;-40
2024/03/22 06:01:32;;;;;;;20.23;11.38;;;;;;;14.23;49.14;100050.16;5093923;28;20027;-40
2024/03/22 06:03:57;;;;;;;22.50;11.13;;;;;;;14.94;46.75;100049.84;5093926;28;20491;-41
2024/03/22 06:06:25;;;;;;;23.83;11.98;;;;;;;15.36;44.70;100056.09;5094082;28;20074;-40
2024/03/22 06:08:52;;;;;;;19.20;11.65;;;;;;;15.57;43.95;100045.91;5093934;28;20547;-40
2024/03/22 06:11:18;;;;;;;29.77;11.73;;;;;;;15.76;43.31;100047.53;5094227;28;20032;-41
2024/03/22 06:13:43;;;;;;;21.13;11.40;;;;;;;16.36;43.41;100051.09;5094318;28;20096;-40
2024/03/22 06:16:09;;;;;;;19.27;11.80;;;;;;;16.46;42.41;100042.44;5094137;28;20365;-40
2024/03/22 06:18:34;;;;;;;17.85;11.15;;;;;;;16.58;41.39;100045.91;5094226;28;20027;-39
2024/03/22 06:21:00;;;;;;;20.45;11.85;;;;;;;16.96;41.59;100039.22;5094057;28;20130;-42
2024/03/22 06:23:25;;;;;;;18.13;11.70;;;;;;;16.47;41.84;100036.00;5093906;28;20064;-41
2024/03/22 06:25:52;;;;;;;19.23;11.18;;;;;;;17.48;40.94;100041.84;5094070;28;20028;-40
2024/03/22 06:28:17;;;;;;;23.42;11.02;;;;;;;18.13;38.56;100048.59;5094082;28;20028;-37
2024/03/22 06:30:42;;;;;;;19.70;10.52;;;;;;;18.60;37.48;100043.84;5093885;28;20084;-40
2024/03/22 06:33:08;;;;;;;14.80;9.80;;;;;;;18.65;36.99;100039.34;5094154;28;20032;-41
2024/03/22 06:35:33;;;;;;;18.00;10.50;;;;;;;19.04;35.83;100038.50;5093675;28;20057;-45
2024/03/22 06:37:59;;;;;;;12.90;9.35;;;;;;;19.12;35.43;100041.56;5093645;28;20056;-41
2024/03/22 06:40:25;;;;;;;18.13;10.07;;;;;;;19.23;36.29;100047.06;5094100;28;20047;-41
2024/03/22 06:42:50;;;;;;;16.23;10.70;;;;;;;19.32;36.04;100042.84;5094040;28;20380;-42
2024/03/22 06:45:15;;;;;;;15.48;9.65;;;;;;;19.88;35.52;100037.22;5092914;28;20509;-42
2024/03/22 06:47:41;;;;;;;14.38;9.55;;;;;;;20.17;34.75;100036.88;5093476;28;20383;-41
2024/03/22 06:50:06;;;;;;;15.82;10.02;;;;;;;20.73;33.52;100044.50;5093658;28;20028;-42
2024/03/22 06:52:32;;;;;;;17.40;10.05;;;;;;;20.72;33.46;100041.00;5093626;28;20024;-43
2024/03/22 06:54:57;;;;;;;14.25;9.20;;;;;;;21.18;33.00;100043.88;5093687;28;20541;-42
2024/03/22 06:57:22;;;;;;;13.93;9.05;;;;;;;21.20;33.22;100043.59;5077471;28;20502;-39
2024/03/22 06:59:47;;;;;;;14.25;8.57;;;;;;;21.29;32.34;100042.81;5071613;28;20036;-43
2024/03/22 07:02:14;;;;;;;12.05;8.02;;;;;;;21.56;31.67;100047.22;5073109;28;20253;-40
2024/03/22 07:04:39;;;;;;;14.43;8.55;;;;;;;22.02;30.94;100044.53;5073351;28;20025;-42
2024/03/22 07:07:05;;;;;;;13.70;8.18;;;;;;;22.33;30.46;100044.53;5073154;28;20021;-41
2024/03/22 07:09:32;;;;;;;14.32;8.68;;;;;;;22.51;29.97;100045.03;5073142;28;20028;-39
2024/03/22 07:11:58;;;;;;;13.82;8.73;;;;;;;22.57;30.05;100047.44;5073205;28;20056;-40
2024/03/22 07:14:25;;;;;;;16.98;8.35;;;;;;;22.72;30.10;100046.56;5073075;28;20063;-41
2024/03/22 07:16:50;;;;;;;11.65;7.70;;;;;;;22.93;29.01;100046.50;5072865;28;20417;-41
2024/03/22 07:19:16;;;;;;;16.20;7.82;;;;;;;23.27;29.00;100052.06;5072377;28;20035;-38
2024/03/22 07:21:41;;;;;;;12.43;8.95;;;;;;;23.51;28.61;100040.50;5072331;28;20020;-39
2024/03/22 07:24:06;;;;;;;28.90;18.05;;;;;;;23.55;28.57;100036.13;5072609;28;20029;-41
2024/03/22 07:26:32;;;;;;;15.93;10.70;;;;;;;23.73;27.94;100038.16;5072777;28;20047;-41
2024/03/22 07:28:57;;;;;;;16.05;10.90;;;;;;;23.91;28.19;100039.41;5072687;28;20020;-42
2024/03/22 07:31:22;;;;;;;12.00;8.27;;;;;;;22.10;29.92;100042.34;5072585;28;20385;-38
2024/03/22 07:33:48;;;;;;;13.73;9.48;;;;;;;22.80;29.14;100042.47;5072470;28;20380;-41
2024/03/22 07:36:16;;;;;;;16.38;9.63;;;;;;;23.55;28.90;100046.97;5072464;28;20110;-39
2024/03/22 07:38:41;;;;;;;21.42;13.63;;;;;;;23.33;28.86;100048.22;5083506;28;20048;-39
2024/03/22 07:41:07;;;;;;;13.52;9.60;;;;;;;21.40;30.72;100046.38;5092992;28;20019;-39
2024/03/22 07:43:32;;;;;;;13.95;7.68;;;;;;;22.76;29.63;100047.66;5092705;28;20020;-42
2024/03/22 07:45:57;;;;;;;11.75;8.18;;;;;;;22.27;30.16;100053.72;5092557;28;20460;-38
2024/03/22 07:48:23;;;;;;;11.27;7.72;;;;;;;22.75;29.54;100045.19;5092491;28;20107;-41
2024/03/22 07:50:56;;;;;;;12.82;7.63;;;;;;;23.00;29.42;100047.03;5092761;28;20486;-41
2024/03/22 07:53:21;;;;;;;11.95;7.50;;;;;;;22.21;30.30;100043.97;5092127;28;20098;-39
2024/03/22 07:55:46;;;;;;;12.48;7.68;;;;;;;22.04;35.18;100047.75;5092200;28;20539;-39
2024/03/22 07:58:12;;;;;;;11.43;7.15;;;;;;;23.55;32.45;100044.25;5091086;28;20440;-38
2024/03/22 08:00:38;;;;;;;12.65;7.78;;;;;;;24.19;31.33;100040.50;5092253;28;20056;-38
2024/03/22 08:03:03;;;;;;;14.77;7.95;;;;;;;23.56;29.88;100040.47;5092020;28;20088;-39
2024/03/22 08:05:28;;;;;;;12.70;7.68;;;;;;;23.55;38.46;100044.25;5092120;28;20091;-40
2024/03/22 08:07:54;;;;;;;14.82;7.82;;;;;;;23.94;31.32;100043.47;5092314;28;20503;-40
2024/03/22 08:10:19;;;;;;;12.60;7.32;;;;;;;24.50;28.40;100042.09;5092388;28;20461;-40
2024/03/22 08:12:45;;;;;;;11.82;7.80;;;;;;;24.52;27.31;100045.34;5092678;28;20421;-39
2024/03/22 08:15:10;;;;;;;13.60;7.28;;;;;;;24.38;27.78;100048.72;5092493;28;20138;-40
2024/03/22 08:17:35;;;;;;;13.15;8.23;;;;;;;23.91;27.25;100041.28;5091794;28;20430;-39
2024/03/22 08:20:01;;;;;;;14.57;7.95;;;;;;;22.82;29.43;100051.94;5092435;28;20473;-37
2024/03/22 08:22:26;;;;;;;13.52;7.82;;;;;;;22.84;29.13;100038.13;5092161;28;20525;-37
2024/03/22 08:24:52;;;;;;;11.70;7.85;;;;;;;23.12;28.46;100049.44;5091915;28;20468;-44
2024/03/22 08:27:17;;;;;;;13.40;7.95;;;;;;;23.22;30.44;100052.06;5092154;28;20493;-37
2024/03/22 08:29:42;;;;;;;9.85;7.47;;;;;;;22.88;29.25;100050.03;5091960;28;20518;-37
2024/03/22 08:32:08;;;;;;;9.32;6.68;;;;;;;23.13;29.96;100051.88;5091863;28;20035;-37
2024/03/22 08:34:33;;;;;;;12.60;6.93;;;;;;;23.73;29.75;100043.59;5091863;28;20024;-41
2024/03/22 08:36:59;;;;;;;12.02;7.10;;;;;;;23.95;27.88;100047.78;5091776;28;20140;-40
2024/03/22 08:39:24;;;;;;;11.88;6.78;;;;;;;24.16;27.69;100049.25;5091565;28;20028;-41
2024/03/22 08:41:50;;;;;;;10.95;7.13;;;;;;;24.40;26.31;100040.28;5091932;28;20061;-42
2024/03/22 08:44:16;;;;;;;9.30;6.90;;;;;;;23.74;26.63;100044.38;5091089;28;20032;-40
2024/03/22 08:46:41;;;;;;;13.00;7.07;;;;;;;23.64;27.42;100042.56;5091166;28;20077;-42
2024/03/22 08:49:06;;;;;;;9.48;6.75;;;;;;;23.91;27.96;100041.28;5091394;28;20028;-39
2024/03/22 08:51:32;;;;;;;10.15;6.68;;;;;;;23.42;27.36;100038.38;5091250;28;20040;-38
2024/03/22 08:53:57;;;;;;;9.25;6.60;;;;;;;23.87;28.33;100037.53;5091184;28;20024;-40
2024/03/22 08:56:22;;;;;;;9.02;6.55;;;;;;;24.56;26.46;100028.19;5091209;28;20085;-38
2024/03/22 08:58:48;;;;;;;10.30;7.40;;;;;;;23.71;26.49;100028.69;5091247;28;20093;-39
2024/03/22 09:01:13;;;;;;;11.18;7.15;;;;;;;22.17;28.61;100038.28;5091365;28;20027;-37
2024/03/22 09:03:39;;;;;;;11.30;6.78;;;;;;;21.80;29.07;100035.84;5091116;28;20028;-40
2024/03/22 09:06:04;;;;;;;10.05;6.70;;;;;;;21.98;29.07;100026.38;5091192;28;20036;-40
2024/03/22 09:08:31;;;;;;;13.45;7.05;;;;;;;22.41;28.59;100024.19;5091800;28;20442;-40
2024/03/22 09:10:56;;;;;;;14.35;7.43;;;;;;;21.83;28.81;100019.88;5095377;28;20027;-47
2024/03/22 09:13:21;;;;;;;10.35;6.63;;;;;;;21.83;29.46;100014.47;5094975;28;20034;-39
2024/03/22 09:15:47;;;;;;;10.13;6.15;;;;;;;22.69;28.66;100019.19;5095168;28;20020;-43
2024/03/22 09:18:13;;;;;;;11.20;6.13;;;;;;;22.15;28.24;100026.09;5095183;28;20027;-41
2024/03/22 09:20:38;;;;;;;8.25;6.28;;;;;;;22.49;27.36;100025.50;5094892;28;20028;-42
2024/03/22 09:23:04;;;;;;;12.85;5.90;;;;;;;22.76;28.54;100020.53;5094943;28;20024;-39
2024/03/22 09:25:29;;;;;;;8.20;5.30;;;;;;;23.25;27.29;100010.81;5094583;28;20020;-43
2024/03/22 09:27:54;;;;;;;8.13;5.03;;;;;;;23.47;26.04;100013.09;5094718;28;20085;-41
2024/03/22 09:30:22;;;;;;;7.97;4.90;;;;;;;23.23;26.44;100008.38;5094350;28;20126;-38
2024/03/22 09:32:48;;;;;;;7.10;4.45;;;;;;;23.00;25.91;100011.75;5094653;28;20028;-39
2024/03/22 09:35:17;;;;;;;10.88;4.75;;;;;;;23.61;26.81;100019.50;5094489;28;20035;-41
2024/03/22 09:37:42;;;;;;;;;;;;;;;23.39;25.76;100009.06;5094821;28;20330;-37
2024/03/22 09:40:08;;;;;;;11.67;5.13;;;;;;;23.23;26.16;100005.66;5094551;28;20356;-38
2024/03/22 09:42:39;;;;;;;8.65;5.57;;;;;;;23.61;26.17;100003.22;5094821;28;20700;-41
2024/03/22 09:45:07;;;;;;;7.95;5.65;;;;;;;23.25;28.40;100012.69;5094211;28;20040;-40
2024/03/22 09:47:33;;;;;;;6.47;4.70;;;;;;;23.74;26.20;100004.47;5094235;28;20020;-37
2024/03/22 09:50:00;;;;;;;7.07;5.32;;;;;;;22.93;25.55;100001.19;5094263;28;20472;-39
2024/03/22 09:52:27;;;;;;;7.00;4.47;;;;;;;21.98;26.36;100002.81;5093990;28;20505;-38
2024/03/22 09:54:52;;;;;;;5.95;4.32;;;;;;;21.51;26.14;99994.97;5094058;28;20092;-41
2024/03/22 09:57:18;;;;;;;5.43;4.20;;;;;;;21.77;25.58;99998.50;5094039;28;20028;-40
2024/03/22 09:59:44;;;;;;;8.80;4.35;;;;;;;21.06;27.09;99994.59;5094013;28;20082;-41
2024/03/22 10:02:15;;;;;;;5.65;3.72;;;;;;;21.62;26.39;99989.28;5094484;28;20056;-39
2024/03/22 10:04:41;;;;;;;6.07;3.90;;;;;;;22.22;25.41;99994.09;5094262;28;20031;-41
2024/03/22 10:07:08;;;;;;;8.70;5.05;;;;;;;21.85;26.75;99995.22;5093909;28;20024;-41
2024/03/22 10:09:34;;;;;;;6.20;4.50;;;;;;;21.95;26.11;99989.81;5093866;28;20028;-40
2024/03/22 10:11:59;;;;;;;6.70;4.18;;;;;;;22.23;25.40;99990.28;5093918;28;20055;-41
2024/03/22 10:14:27;;;;;;;5.40;4.50;;;;;;;22.63;25.81;99986.66;5093984;28;20047;-41
2024/03/22 10:16:53;;;;;;;9.00;5.47;;;;;;;23.30;26.01;99980.88;5094047;28;20028;-36
2024/03/22 10:19:23;;;;;;;7.40;5.15;;;;;;;23.92;25.06;99983.16;5093397;28;20349;-42
2024/03/22 10:21:58;;;;;;;;;;;;;;;24.47;23.08;99978.19;5093411;28;20407;-43
2024/03/22 10:24:24;;;;;;;8.55;5.50;;;;;;;23.27;25.20;99969.81;5093230;28;19943;-41
2024/03/22 10:26:50;;;;;;;10.27;4.95;;;;;;;24.02;24.18;99972.16;5093595;28;20086;-37
2024/03/22 10:29:15;;;;;;;15.15;4.63;;;;;;;23.63;24.46;99964.91;5093571;28;20031;-38
2024/03/22 10:31:41;;;;;;;5.93;4.05;;;;;;;24.05;24.05;99965.38;5093684;28;20032;-40
2024/03/22 10:34:08;;;;;;;10.95;4.55;;;;;;;24.05;23.92;99959.94;5093589;28;20023;-46
2024/03/22 10:36:34;;;;;;;5.00;4.00;;;;;;;24.90;23.65;99961.06;5093308;28;20399;-41
2024/03/22 10:39:00;;;;;;;6.38;4.30;;;;;;;24.75;23.31;99959.38;5092493;28;20059;-38
2024/03/22 10:41:26;;;;;;;8.30;4.28;;;;;;;25.33;23.37;99947.41;5092897;28;20030;-40
2024/03/22 10:43:54;;;;;;;6.45;4.00;;;;;;;24.51;22.61;99940.34;5093210;28;20408;-39
2024/03/22 10:46:20;;;;;;;10.73;4.57;;;;;;;24.51;23.11;99940.34;5092642;28;20020;-38
2024/03/22 10:48:47;;;;;;;5.15;3.45;;;;;;;23.11;22.82;99936.50;5093084;28;20112;-40
2024/03/22 10:51:14;;;;;;;7.15;3.50;;;;;;;23.02;24.21;99928.94;5092018;28;20484;-40
2024/03/22 10:53:41;;;;;;;5.40;3.55;;;;;;;23.82;22.98;99921.56;5092616;28;20525;-42
2024/03/22 10:56:09;;;;;;;5.60;3.50;;;;;;;24.57;23.08;99920.97;5092934;28;20055;-41
2024/03/22 10:58:39;;;;;;;6.85;4.40;;;;;;;25.03;23.10;99918.72;5093182;28;20103;-42
2024/03/22 11:01:05;;;;;;;5.68;3.83;;;;;;;24.70;21.87;99916.72;5093261;28;20028;-41
2024/03/22 11:03:30;;;;;;;5.53;4.05;;;;;;;24.76;22.52;99917.47;5092843;28;20407;-43
2024/03/22 11:05:57;;;;;;;6.68;4.15;;;;;;;24.62;22.10;99913.84;5092886;28;20034;-39
2024/03/22 11:08:25;;;;;;;7.13;4.00;;;;;;;23.91;22.66;99910.88;5092561;28;20024;-39
2024/03/22 11:10:51;;;;;;;6.85;3.80;;;;;;;22.69;23.94;99902.56;5092469;28;20448;-40
2024/03/22 11:13:17;;;;;;;8.40;3.00;;;;;;;21.46;23.33;99907.25;5092830;28;20063;-40
2024/03/22 11:15:43;;;;;;;5.22;3.13;;;;;;;20.59;24.30;99901.69;5092492;28;20024;-41
2024/03/22 11:18:09;;;;;;;5.38;3.00;;;;;;;21.52;22.89;99904.56;5092311;28;20107;-44